Oregon State Flying Club

The Oregon State Flying Club is a non-profit organization committed to providing safe and inexpensive flying to the Oregon State University and Linn-Benton Community College communities. The Club currently owns three aircraft based at the Corvallis Airport for training, travel, and recreational purposes. Founded in 1952 and incorporated in 1956 the OSFC is one of the oldest continuously active flying clubs in the United States.

News & Announcements

OSFC Open House

Corvallis Airport, Saturday, May 2nd, 10:00am to 3:00pm

Newsletter

The Pilot - March 2015 edition (pdf)

Monthly Board Meeting

Next Meeting: Wednesday, April 22, 6pm, Memorial Union Board Room

Current METAR KCVO

Raw METAR:  KCVO 181255Z AUTO 31003KT 10SM CLR 06/04 A3028 RMK AO1

This is a report for Corvallis Municipal Automatic Weather Observing / Reporting System, United States. The report was made 14 minutes ago, at 12:55 UTC. The wind was blowing at a speed of 3.5 miles per hour (1.5 meters per second) from northwest (310°). The temperature was 43 °F (6 °C), with a dew-point at 39 °F (4 °C). The atmospheric pressure was 30.28 inHg (1025 hPa). The relative humidity was 87.0%. The sky was clear. The overall visibility was 10.0 miles (16.1 kilometers).